createdAt,value
2023-04-15T00:01:02.099Z,1.04
2023-04-15T00:02:02.305Z,1.04
2023-04-15T00:03:02.516Z,1.04
2023-04-15T00:04:02.592Z,1.04
2023-04-15T00:05:02.657Z,1.04
2023-04-15T00:06:02.808Z,1.04
2023-04-15T00:07:02.953Z,1.04
2023-04-15T00:08:03.100Z,1.04
2023-04-15T00:09:03.394Z,1.04
2023-04-15T00:10:03.418Z,1.04
2023-04-15T00:11:03.561Z,1.04
2023-04-15T00:12:03.720Z,1.04
2023-04-15T00:13:03.817Z,1.04
2023-04-15T00:14:03.976Z,1.04
2023-04-15T00:15:04.114Z,1.04
2023-04-15T00:16:04.232Z,1.04
2023-04-15T00:17:04.504Z,1.04
2023-04-15T00:18:04.569Z,1.04
2023-04-15T00:19:04.671Z,1.04
2023-04-15T00:20:04.773Z,1.04
2023-04-15T00:21:04.923Z,1.04
2023-04-15T00:22:05.073Z,1.04
2023-04-15T00:23:05.235Z,1.04
2023-04-15T00:24:05.384Z,1.04
2023-04-15T00:25:05.536Z,1.04
2023-04-15T00:26:05.704Z,1.04
2023-04-15T00:27:05.788Z,1.04
2023-04-15T00:28:05.930Z,1.04
2023-04-15T00:29:06.087Z,1.04
2023-04-15T00:30:06.245Z,1.04
2023-04-15T00:31:06.463Z,1.04
2023-04-15T00:32:06.487Z,1.04
2023-04-15T00:33:06.660Z,1.04
2023-04-15T00:34:06.790Z,1.04
2023-04-15T00:35:06.950Z,1.04
2023-04-15T00:36:07.101Z,1.04
2023-04-15T00:37:07.265Z,1.04
2023-04-15T00:38:07.417Z,1.04
2023-04-15T00:39:07.857Z,1.04
2023-04-15T00:40:07.675Z,1.04
2023-04-15T00:41:07.747Z,1.04
2023-04-15T00:42:07.857Z,1.04
2023-04-15T00:43:08.017Z,1.04
2023-04-15T00:44:08.157Z,1.04
2023-04-15T00:45:08.308Z,1.04
2023-04-15T00:46:08.466Z,1.04
2023-04-15T00:47:08.616Z,1.04
2023-04-15T00:48:08.770Z,1.04
2023-04-15T00:49:08.914Z,1.04
2023-04-15T00:50:09.019Z,1.04
2023-04-15T00:51:09.126Z,1.04
2023-04-15T00:52:09.280Z,1.04
2023-04-15T00:53:09.388Z,1.04
2023-04-15T00:54:09.491Z,1.04
2023-04-15T00:55:09.623Z,1.04
2023-04-15T00:56:09.783Z,1.04
2023-04-15T00:57:09.927Z,1.04
2023-04-15T00:58:10.096Z,1.04
2023-04-15T00:59:10.237Z,1.04
2023-04-15T01:00:10.393Z,1.04
2023-04-15T01:01:10.540Z,1.04
2023-04-15T01:02:10.807Z,1.04
2023-04-15T01:03:10.943Z,1.04
2023-04-15T01:04:11.104Z,1.04
2023-04-15T01:05:11.173Z,1.04
2023-04-15T01:06:11.305Z,1.04
2023-04-15T01:07:11.464Z,1.04
2023-04-15T01:08:11.598Z,1.04
2023-04-15T01:09:11.753Z,1.04
2023-04-15T01:10:11.916Z,1.04
2023-04-15T01:11:12.057Z,1.04
2023-04-15T01:12:12.207Z,1.04
2023-04-15T01:13:12.361Z,1.04
2023-04-15T01:14:12.513Z,1.04
2023-04-15T01:15:12.660Z,1.04
2023-04-15T01:16:12.793Z,1.04
2023-04-15T01:17:12.903Z,1.04
2023-04-15T01:18:13.064Z,1.04
2023-04-15T01:19:13.215Z,1.04
2023-04-15T01:20:13.392Z,1.04
2023-04-15T01:21:13.520Z,1.04
2023-04-15T01:22:13.667Z,1.04
2023-04-15T01:23:13.773Z,1.04
2023-04-15T01:24:13.924Z,1.04
2023-04-15T01:25:14.082Z,1.04
2023-04-15T01:26:14.232Z,1.04
2023-04-15T01:27:14.381Z,1.04
2023-04-15T01:28:14.542Z,1.04
2023-04-15T01:29:14.681Z,1.04
2023-04-15T01:30:14.785Z,1.04
2023-04-15T01:31:14.962Z,1.04
2023-04-15T01:32:15.029Z,1.04
2023-04-15T01:33:15.184Z,1.04
2023-04-15T01:34:15.294Z,1.04
2023-04-15T01:35:15.466Z,1.04
2023-04-15T01:36:15.589Z,1.04
2023-04-15T01:37:15.736Z,1.04
2023-04-15T01:38:15.892Z,1.04
2023-04-15T01:39:16.078Z,1.04
2023-04-15T01:40:16.158Z,1.04
2023-04-15T01:41:16.251Z,1.04
2023-04-15T01:42:16.403Z,1.04
2023-04-15T01:43:16.565Z,1.04
2023-04-15T01:44:16.716Z,1.04
2023-04-15T01:45:16.860Z,1.04
2023-04-15T01:46:17.027Z,1.04
2023-04-15T01:47:17.156Z,1.04
2023-04-15T01:48:17.317Z,1.04
2023-04-15T01:49:17.463Z,1.04
2023-04-15T01:50:17.612Z,1.04
2023-04-15T01:51:17.781Z,1.04
2023-04-15T01:52:17.919Z,1.04
2023-04-15T01:53:18.065Z,1.04
2023-04-15T01:54:18.174Z,1.04
2023-04-15T01:55:18.325Z,1.04
2023-04-15T01:56:18.471Z,1.04
2023-04-15T01:57:18.648Z,1.04
2023-04-15T01:58:18.774Z,1.04
2023-04-15T01:59:18.983Z,1.04
2023-04-15T02:00:19.163Z,1.04
2023-04-15T02:01:19.317Z,1.04
2023-04-15T02:02:19.491Z,1.04
2023-04-15T02:03:19.575Z,1.04
2023-04-15T02:04:19.676Z,1.04
2023-04-15T02:05:19.850Z,1.04
2023-04-15T02:06:19.997Z,1.04
2023-04-15T02:07:20.107Z,1.04
2023-04-15T02:08:20.260Z,1.04
2023-04-15T02:09:20.398Z,1.04
2023-04-15T02:10:20.553Z,1.04
2023-04-15T02:11:20.710Z,1.04
2023-04-15T02:12:20.855Z,1.04
2023-04-15T02:13:21.001Z,1.04
2023-04-15T02:14:21.163Z,1.04
2023-04-15T02:15:21.315Z,1.04
2023-04-15T02:16:21.541Z,1.04
2023-04-15T02:17:21.655Z,1.04
2023-04-15T02:18:21.764Z,1.04
2023-04-15T02:19:21.923Z,1.04
2023-04-15T02:20:22.060Z,1.04
2023-04-15T02:21:22.213Z,1.04
2023-04-15T02:22:22.378Z,1.04
2023-04-15T02:23:22.519Z,1.04
2023-04-15T02:24:22.684Z,1.04
2023-04-15T02:25:22.827Z,1.04
2023-04-15T02:26:22.979Z,1.04
2023-04-15T02:27:23.135Z,1.04
2023-04-15T02:28:23.279Z,1.04
2023-04-15T02:29:23.432Z,1.04
2023-04-15T02:30:23.578Z,1.04
2023-04-15T02:31:23.780Z,1.04
2023-04-15T02:32:23.936Z,1.04
2023-04-15T02:33:24.041Z,1.04
2023-04-15T02:34:24.197Z,1.04
2023-04-15T02:35:24.339Z,1.04
2023-04-15T02:36:24.494Z,1.04
2023-04-15T02:37:24.643Z,1.04
2023-04-15T02:38:24.804Z,1.04
2023-04-15T02:39:24.943Z,1.04
2023-04-15T02:40:25.093Z,1.04
2023-04-15T02:41:25.202Z,1.04
2023-04-15T02:42:25.299Z,1.04
2023-04-15T02:43:25.412Z,1.04
2023-04-15T02:44:25.567Z,1.04
2023-04-15T02:45:25.699Z,1.04
2023-04-15T02:46:25.919Z,1.04
2023-04-15T02:47:26.054Z,1.04
2023-04-15T02:48:26.112Z,1.04
2023-04-15T02:49:26.219Z,1.04
2023-04-15T02:50:26.360Z,1.04
2023-04-15T02:51:26.508Z,1.04
2023-04-15T02:52:26.662Z,1.04
2023-04-15T02:53:26.829Z,1.04
2023-04-15T02:54:26.967Z,1.04
2023-04-15T02:55:27.112Z,1.04
2023-04-15T02:56:27.266Z,1.04
2023-04-15T02:57:27.422Z,1.04
2023-04-15T02:58:27.573Z,1.04
2023-04-15T02:59:27.684Z,1.04
2023-04-15T03:00:27.818Z,1.04
2023-04-15T03:01:27.953Z,1.04
2023-04-15T03:02:28.228Z,1.04
2023-04-15T03:03:28.305Z,1.04
2023-04-15T03:04:28.375Z,1.04
2023-04-15T03:05:28.536Z,1.04
2023-04-15T03:06:28.622Z,1.04
2023-04-15T03:07:28.728Z,1.04
2023-04-15T03:08:28.876Z,1.04
2023-04-15T03:09:29.040Z,1.04
2023-04-15T03:10:29.179Z,1.04
2023-04-15T03:11:29.346Z,1.04
2023-04-15T03:12:29.478Z,1.04
2023-04-15T03:13:29.580Z,1.04
2023-04-15T03:14:29.747Z,1.04
2023-04-15T03:15:29.897Z,1.04
2023-04-15T03:16:30.033Z,1.04
2023-04-15T03:17:30.219Z,1.04
2023-04-15T03:18:30.336Z,1.04
2023-04-15T03:19:30.514Z,1.04
2023-04-15T03:20:30.668Z,1.04
2023-04-15T03:21:30.821Z,1.04
2023-04-15T03:22:30.956Z,1.04
2023-04-15T03:23:31.066Z,1.04
2023-04-15T03:24:31.209Z,1.04
2023-04-15T03:25:31.316Z,1.04
2023-04-15T03:26:31.457Z,1.04
2023-04-15T03:27:31.567Z,1.04
2023-04-15T03:28:31.665Z,1.04
2023-04-15T03:29:31.822Z,1.04
2023-04-15T03:30:31.965Z,1.04
2023-04-15T03:31:32.145Z,1.04
2023-04-15T03:32:32.317Z,1.04
2023-04-15T03:33:32.424Z,1.04
2023-04-15T03:34:32.587Z,1.04
2023-04-15T03:35:32.730Z,1.04
2023-04-15T03:36:32.875Z,1.04
2023-04-15T03:37:33.038Z,1.04
2023-04-15T03:38:33.175Z,1.04
2023-04-15T03:39:33.342Z,1.04
2023-04-15T03:40:33.487Z,1.04
2023-04-15T03:41:33.633Z,1.04
2023-04-15T03:42:33.782Z,1.04
2023-04-15T03:43:33.940Z,1.04
2023-04-15T03:44:34.043Z,1.04
2023-04-15T03:45:34.186Z,1.04
2023-04-15T03:46:34.357Z,2
2023-04-15T03:47:34.507Z,2
2023-04-15T03:48:34.651Z,2
2023-04-15T03:49:34.804Z,2
2023-04-15T03:50:34.966Z,2
2023-04-15T03:51:35.102Z,3.04
2023-04-15T03:52:35.265Z,3.04
2023-04-15T03:53:35.361Z,3.04
2023-04-15T03:54:35.463Z,3.04
2023-04-15T03:55:35.576Z,4
2023-04-15T03:56:35.716Z,5.04
2023-04-15T03:57:35.862Z,6
2023-04-15T03:58:35.962Z,6
2023-04-15T03:59:36.123Z,7.04
2023-04-15T04:00:36.224Z,8
2023-04-15T04:01:36.363Z,9.04
2023-04-15T04:02:36.562Z,11.04
2023-04-15T04:03:36.764Z,13.04
2023-04-15T04:04:36.843Z,15.04
2023-04-15T04:05:36.925Z,17.04
2023-04-15T04:06:37.072Z,18
2023-04-15T04:07:37.179Z,19.04
2023-04-15T04:08:37.322Z,21.04
2023-04-15T04:09:37.485Z,22
2023-04-15T04:10:37.636Z,24
2023-04-15T04:11:37.792Z,25.04
2023-04-15T04:12:37.936Z,28
2023-04-15T04:13:38.108Z,32
2023-04-15T04:14:38.241Z,33.04
2023-04-15T04:15:38.399Z,35.04
2023-04-15T04:16:38.599Z,37.04
2023-04-15T04:17:38.697Z,42
2023-04-15T04:18:38.834Z,47.04
2023-04-15T04:19:38.996Z,49.04
2023-04-15T04:20:39.144Z,50
2023-04-15T04:21:39.298Z,52
2023-04-15T04:22:39.450Z,55.04
2023-04-15T04:23:39.596Z,58
2023-04-15T04:24:39.754Z,61.04
2023-04-15T04:25:39.919Z,67.04
2023-04-15T04:26:40.081Z,71.04
2023-04-15T04:27:40.212Z,77.04
2023-04-15T04:28:40.352Z,85.04
2023-04-15T04:29:40.509Z,93.04
2023-04-15T04:30:40.615Z,99.04
2023-04-15T04:31:40.731Z,108
2023-04-15T04:32:40.911Z,106
2023-04-15T04:33:41.007Z,112
2023-04-15T04:34:41.161Z,124
2023-04-15T04:35:41.280Z,117.04
2023-04-15T04:36:41.413Z,122
2023-04-15T04:37:41.562Z,132
2023-04-15T04:38:41.672Z,142
2023-04-15T04:39:41.815Z,161.04
2023-04-15T04:40:41.977Z,181.12
2023-04-15T04:41:42.134Z,204
2023-04-15T04:42:42.289Z,220
2023-04-15T04:43:42.422Z,240
2023-04-15T04:44:42.579Z,249.12
2023-04-15T04:45:42.782Z,259.04
2023-04-15T04:46:42.791Z,261.12
2023-04-15T04:47:43.001Z,270.08
2023-04-15T04:48:43.207Z,290.08
2023-04-15T04:49:43.210Z,289.12
2023-04-15T04:50:43.351Z,301.12
2023-04-15T04:51:43.488Z,322.08
2023-04-15T04:52:43.638Z,296
2023-04-15T04:53:43.791Z,283.04
2023-04-15T04:54:43.889Z,302.08
2023-04-15T04:55:44.038Z,367.04
2023-04-15T04:56:44.189Z,413.12
2023-04-15T04:57:44.356Z,433.28
2023-04-15T04:58:44.501Z,487.04
2023-04-15T04:59:44.644Z,481.28
2023-04-15T05:00:44.807Z,504
2023-04-15T05:01:44.981Z,597.12
2023-04-15T05:02:45.129Z,569.28
2023-04-15T05:03:45.245Z,472
2023-04-15T05:04:45.358Z,460.16
2023-04-15T05:05:45.498Z,548.16
2023-04-15T05:06:45.650Z,480
2023-04-15T05:07:45.812Z,447.04
2023-04-15T05:08:45.969Z,391.04
2023-04-15T05:09:46.070Z,423.04
2023-04-15T05:10:46.217Z,418.24
2023-04-15T05:11:46.372Z,426.24
2023-04-15T05:12:46.546Z,433.28
2023-04-15T05:13:46.676Z,450.24
2023-04-15T05:14:46.896Z,429.12
2023-04-15T05:15:46.962Z,507.2
2023-04-15T05:17:47.266Z,609.28
2023-04-15T05:18:47.382Z,644.16
2023-04-15T05:19:47.534Z,796.16
2023-04-15T05:20:47.684Z,948.48
2023-04-15T05:21:47.790Z,1100.16
2023-04-15T05:22:47.977Z,1135.36
2023-04-15T05:23:48.095Z,1167.36
2023-04-15T05:24:48.249Z,1049.6
2023-04-15T05:25:48.381Z,1022.08
2023-04-15T05:26:48.541Z,956.16
2023-04-15T05:27:48.688Z,836.48
2023-04-15T05:28:48.844Z,787.2
2023-04-15T05:29:48.996Z,795.52
2023-04-15T05:30:49.199Z,842.24
2023-04-15T05:31:49.276Z,772.48
2023-04-15T05:32:49.465Z,706.56
2023-04-15T05:33:49.568Z,663.04
2023-04-15T05:34:49.702Z,722.56
2023-04-15T05:35:49.853Z,759.04
2023-04-15T05:36:50.009Z,904.32
2023-04-15T05:37:50.177Z,1035.52
2023-04-15T05:38:50.320Z,1082.24
2023-04-15T05:39:50.462Z,1132.16
2023-04-15T05:40:50.612Z,1466.88
2023-04-15T05:41:50.764Z,1896.96
2023-04-15T05:42:50.866Z,2231.04
2023-04-15T05:43:51.013Z,2364.16
2023-04-15T05:44:51.205Z,2127.36
2023-04-15T05:45:51.361Z,2428.16
2023-04-15T05:46:51.426Z,2744.32
2023-04-15T05:47:51.632Z,2821.12
2023-04-15T05:48:51.728Z,2767.36
2023-04-15T05:49:51.880Z,2254.08
2023-04-15T05:50:52.031Z,1776.64
2023-04-15T05:51:52.134Z,1386.24
2023-04-15T05:52:52.298Z,1112.32
2023-04-15T05:53:52.439Z,1029.12
2023-04-15T05:54:52.535Z,1058.56
2023-04-15T05:55:52.684Z,1131.52
2023-04-15T05:56:52.855Z,1210.24
2023-04-15T05:57:52.996Z,1240.32
2023-04-15T05:58:53.860Z,1404.16
2023-04-15T05:59:53.306Z,1632
2023-04-15T06:00:53.453Z,1992.96
2023-04-15T06:01:53.973Z,2277.12
2023-04-15T06:02:53.785Z,2469.12
2023-04-15T06:03:54.020Z,2535.68
2023-04-15T06:04:54.089Z,2503.68
2023-04-15T06:05:54.205Z,2481.92
2023-04-15T06:06:54.348Z,2238.72
2023-04-15T06:07:54.391Z,1867.52
2023-04-15T06:08:54.490Z,1527.04
2023-04-15T06:09:54.645Z,1387.52
2023-04-15T06:10:54.808Z,1317.12
2023-04-15T06:11:54.963Z,1294.08
2023-04-15T06:12:55.059Z,1358.08
2023-04-15T06:13:55.164Z,1506.56
2023-04-15T06:14:55.280Z,1733.12
2023-04-15T06:15:55.433Z,1918.72
2023-04-15T06:16:55.568Z,2213.12
2023-04-15T06:17:55.727Z,2849.28
2023-04-15T06:18:55.769Z,3481.6
2023-04-15T06:19:55.924Z,3783.68
2023-04-15T06:20:56.026Z,3811.84
2023-04-15T06:21:56.121Z,3799.04
2023-04-15T06:22:56.242Z,3819.52
2023-04-15T06:23:56.369Z,3837.44
2023-04-15T06:24:56.493Z,4149.76
2023-04-15T06:25:56.580Z,4551.68
2023-04-15T06:26:56.706Z,4815.36
2023-04-15T06:27:56.873Z,4981.76
2023-04-15T06:28:57.046Z,5048.32
2023-04-15T06:29:57.143Z,5299.2
2023-04-15T06:30:57.287Z,5719.04
2023-04-15T06:31:57.446Z,5934.08
2023-04-15T06:32:57.571Z,6010.88
2023-04-15T06:33:57.649Z,5903.36
2023-04-15T06:34:57.793Z,5616.64
2023-04-15T06:35:57.946Z,5350.4
2023-04-15T06:36:58.102Z,5370.88
2023-04-15T06:37:58.254Z,5437.44
2023-04-15T06:38:58.365Z,5294.08
2023-04-15T06:39:58.497Z,4613.12
2023-04-15T06:40:58.653Z,4108.8
2023-04-15T06:41:58.802Z,3837.44
2023-04-15T06:42:58.956Z,3873.28
2023-04-15T06:43:59.113Z,4044.8
2023-04-15T06:44:59.273Z,4503.04
2023-04-15T06:45:59.473Z,4835.84
2023-04-15T06:46:59.517Z,4577.28
2023-04-15T06:47:59.753Z,4421.12
2023-04-15T06:48:59.960Z,4170.24
2023-04-15T06:49:59.919Z,3691.52
2023-04-15T06:51:00.074Z,3338.24
2023-04-15T06:52:00.209Z,3338.24
2023-04-15T06:53:00.379Z,3415.04
2023-04-15T06:54:00.515Z,3315.2
2023-04-15T06:55:00.684Z,3317.76
2023-04-15T06:56:00.815Z,3494.4
2023-04-15T06:57:00.973Z,3927.04
2023-04-15T06:58:01.147Z,4718.08
2023-04-15T06:59:01.383Z,4743.68
2023-04-15T07:00:01.443Z,4615.68
2023-04-15T07:01:01.612Z,4997.12
2023-04-15T07:02:01.761Z,5401.6
2023-04-15T07:03:01.901Z,5611.52
2023-04-15T07:04:02.029Z,5642.24
2023-04-15T07:05:02.092Z,5483.52
2023-04-15T07:06:02.191Z,6082.56
2023-04-15T07:07:02.343Z,6753.28
2023-04-15T07:08:02.490Z,5995.52
2023-04-15T07:09:02.769Z,5688.32
2023-04-15T07:10:02.794Z,5724.16
2023-04-15T07:11:02.962Z,5524.48
2023-04-15T07:12:03.107Z,4628.48
2023-04-15T07:13:03.248Z,4431.36
2023-04-15T07:14:03.360Z,4469.76
2023-04-15T07:15:03.512Z,4321.28
2023-04-15T07:16:03.662Z,4108.8
2023-04-15T07:17:03.822Z,4280.32
2023-04-15T07:18:04.106Z,4047.36
2023-04-15T07:19:04.322Z,4390.4
2023-04-15T07:20:04.161Z,5749.76
2023-04-15T07:21:04.313Z,6328.32
2023-04-15T07:22:04.410Z,6717.44
2023-04-15T07:23:04.552Z,6389.76
2023-04-15T07:24:04.654Z,6205.44
2023-04-15T07:25:04.809Z,6010.88
2023-04-15T07:26:04.958Z,6266.88
2023-04-15T07:27:05.111Z,6737.92
2023-04-15T07:28:05.211Z,7034.88
2023-04-15T07:29:05.366Z,6543.36
2023-04-15T07:30:05.467Z,6517.76
2023-04-15T07:31:05.636Z,6891.52
2023-04-15T07:32:05.769Z,7306.24
2023-04-15T07:33:05.924Z,7818.24
2023-04-15T07:34:06.083Z,7567.36
2023-04-15T07:35:06.176Z,7306.24
2023-04-15T07:36:06.332Z,7459.84
2023-04-15T07:37:06.477Z,7536.64
2023-04-15T07:38:06.582Z,7101.44
2023-04-15T07:39:06.729Z,6533.12
2023-04-15T07:40:06.936Z,6092.8
2023-04-15T07:41:07.033Z,6184.96
2023-04-15T07:42:07.194Z,6507.52
2023-04-15T07:43:07.364Z,7208.96
2023-04-15T07:44:07.500Z,7470.08
2023-04-15T07:45:07.659Z,7628.8
2023-04-15T07:46:07.821Z,8448
2023-04-15T07:47:07.962Z,8867.84
2023-04-15T07:48:08.121Z,8806.399
2023-04-15T07:49:08.264Z,9216
2023-04-15T07:50:08.403Z,9610.24
2023-04-15T07:51:08.506Z,8960
2023-04-15T07:52:08.618Z,8197.12
2023-04-15T07:53:08.826Z,7516.16
2023-04-15T07:54:08.926Z,7562.24
2023-04-15T07:55:09.073Z,8606.72
2023-04-15T07:56:09.220Z,9886.72
2023-04-15T07:57:09.377Z,10967.04
2023-04-15T07:58:09.473Z,11571.2
2023-04-15T07:59:09.623Z,12032
2023-04-15T08:00:09.731Z,11530.239
2023-04-15T08:01:09.835Z,10639.359
2023-04-15T08:02:10.050Z,10086.399
2023-04-15T08:03:10.284Z,9559.04
2023-04-15T08:04:10.322Z,9113.6
2023-04-15T08:05:10.420Z,9753.6
2023-04-15T08:06:10.530Z,11089.92
2023-04-15T08:07:10.689Z,12206.08
2023-04-15T08:08:10.833Z,11601.92
2023-04-15T08:09:10.986Z,10659.84
2023-04-15T08:10:11.162Z,10362.88
2023-04-15T08:11:11.242Z,10557.439
2023-04-15T08:12:11.390Z,10967.04
2023-04-15T08:13:11.546Z,10926.08
2023-04-15T08:14:11.656Z,11970.56
2023-04-15T08:15:11.797Z,14182.399
2023-04-15T08:16:11.947Z,15779.84
2023-04-15T08:17:12.000Z,16261.12
2023-04-15T08:18:12.161Z,14735.359
2023-04-15T08:19:12.260Z,12308.479
2023-04-15T08:20:12.395Z,11120.64
2023-04-15T08:21:12.563Z,9907.2
2023-04-15T08:22:15.380Z,9226.24
2023-04-15T08:23:12.871Z,9589.76
2023-04-15T08:24:13.019Z,10895.359
2023-04-15T08:25:13.156Z,12687.359
2023-04-15T08:26:13.266Z,15206.399
2023-04-15T08:27:13.408Z,15585.279
2023-04-15T08:28:13.558Z,15656.96
2023-04-15T08:29:13.667Z,13926.399
2023-04-15T08:30:13.837Z,11479.04
2023-04-15T08:31:14.009Z,10731.52
2023-04-15T08:32:14.074Z,10967.04
2023-04-15T08:33:14.227Z,10608.64
2023-04-15T08:34:14.334Z,10357.76
2023-04-15T08:35:14.472Z,11243.52
2023-04-15T08:36:14.630Z,11622.399
2023-04-15T08:37:14.777Z,10173.439
2023-04-15T08:38:14.936Z,9492.479
2023-04-15T08:39:15.087Z,9912.319
2023-04-15T08:40:15.233Z,9820.16
2023-04-15T08:41:15.381Z,10076.16
2023-04-15T08:42:15.491Z,11048.96
2023-04-15T08:43:15.636Z,12032
2023-04-15T08:44:15.796Z,12451.84
2023-04-15T08:45:15.951Z,11438.08
2023-04-15T08:46:16.145Z,10956.8
2023-04-15T08:47:16.247Z,11100.16
2023-04-15T08:48:16.405Z,11294.72
2023-04-15T08:49:16.543Z,11468.8
2023-04-15T08:50:16.700Z,11560.96
2023-04-15T08:51:16.845Z,12421.12
2023-04-15T08:52:17.012Z,14120.96
2023-04-15T08:53:17.116Z,14653.439
2023-04-15T08:54:17.300Z,13813.76
2023-04-15T08:55:17.403Z,11171.84
2023-04-15T08:56:17.611Z,10045.439
2023-04-15T08:57:17.662Z,9221.12
2023-04-15T08:58:17.810Z,9477.12
2023-04-15T08:59:17.959Z,10547.2
2023-04-15T09:00:18.172Z,12072.96
2023-04-15T09:01:18.288Z,14243.84
2023-04-15T09:02:18.472Z,15646.72
2023-04-15T09:03:18.590Z,17049.6
2023-04-15T09:04:18.749Z,18155.52
2023-04-15T09:05:18.820Z,18882.56
2023-04-15T09:06:18.993Z,20817.92
2023-04-15T09:07:19.135Z,21852.16
2023-04-15T09:08:19.291Z,21483.52
2023-04-15T09:09:19.425Z,21893.12
2023-04-15T09:10:19.592Z,23654.4
2023-04-15T09:11:20.204Z,22487.04
2023-04-15T09:12:19.881Z,19947.52
2023-04-15T09:13:20.040Z,18800.64
2023-04-15T09:14:20.183Z,20131.84
2023-04-15T09:15:20.297Z,19271.68
2023-04-15T09:16:20.464Z,16916.48
2023-04-15T09:17:20.605Z,16066.56
2023-04-15T09:18:20.749Z,17715.2
2023-04-15T09:19:20.887Z,19169.28
2023-04-15T09:20:21.057Z,20070.4
2023-04-15T09:21:21.193Z,19773.44
2023-04-15T09:22:21.347Z,15339.52
2023-04-15T09:23:21.506Z,15728.64
2023-04-15T09:24:21.648Z,16363.52
2023-04-15T09:25:21.810Z,13537.279
2023-04-15T09:26:21.955Z,12769.279
2023-04-15T09:27:22.104Z,12922.88
2023-04-15T09:28:22.220Z,13557.76
2023-04-15T09:29:22.355Z,15155.199
2023-04-15T09:30:22.518Z,15196.159
2023-04-15T09:31:22.679Z,15144.96
2023-04-15T09:32:22.786Z,18053.12
2023-04-15T09:33:22.964Z,17623.04
2023-04-15T09:34:23.106Z,17070.08
2023-04-15T09:35:23.238Z,16250.88
2023-04-15T09:36:23.365Z,16558.08
2023-04-15T09:37:31.945Z,18012.16
2023-04-15T09:38:23.637Z,17960.96
2023-04-15T09:39:23.821Z,15032.319
2023-04-15T09:40:23.917Z,12830.72
2023-04-15T09:41:24.039Z,12431.359
2023-04-15T09:42:24.262Z,12523.52
2023-04-15T09:43:24.327Z,13035.52
2023-04-15T09:44:24.471Z,13363.199
2023-04-15T09:45:27.128Z,12523.52
2023-04-15T09:46:24.754Z,12226.56
2023-04-15T09:47:24.894Z,12390.399
2023-04-15T09:48:25.028Z,12216.319
2023-04-15T09:49:25.236Z,12257.279
2023-04-15T09:50:25.341Z,11376.64
2023-04-15T09:51:25.482Z,12032
2023-04-15T09:52:25.637Z,11939.84
2023-04-15T09:53:25.789Z,11796.479
2023-04-15T09:54:25.952Z,12871.68
2023-04-15T09:55:26.090Z,14663.68
2023-04-15T09:56:26.213Z,14264.319
2023-04-15T09:57:26.349Z,14059.52
2023-04-15T09:58:26.514Z,14131.199
2023-04-15T09:59:26.681Z,14039.04
2023-04-15T10:00:26.805Z,13475.84
2023-04-15T10:01:26.939Z,13895.68
2023-04-15T10:02:27.107Z,14673.92
2023-04-15T10:03:27.270Z,15370.239
2023-04-15T10:04:27.463Z,14868.479
2023-04-15T10:05:27.800Z,15124.479
2023-04-15T10:06:27.565Z,16291.84
2023-04-15T10:07:27.713Z,16629.76
2023-04-15T10:08:27.817Z,14858.239
2023-04-15T10:09:27.971Z,14069.76
2023-04-15T10:10:28.077Z,14295.04
2023-04-15T10:11:29.633Z,16967.68
2023-04-15T10:12:28.398Z,17848.32
2023-04-15T10:13:28.476Z,18135.04
2023-04-15T10:14:28.661Z,18114.56
2023-04-15T10:15:28.802Z,18237.44
2023-04-15T10:16:28.951Z,18278.4
2023-04-15T10:17:31.221Z,17960.96
2023-04-15T10:18:29.257Z,17776.64
2023-04-15T10:19:29.379Z,17551.36
2023-04-15T10:20:29.529Z,15616
2023-04-15T10:21:29.681Z,16588.8
2023-04-15T10:22:29.800Z,16885.76
2023-04-15T10:23:29.958Z,16691.2
2023-04-15T10:24:30.045Z,16855.04
2023-04-15T10:25:30.180Z,17633.28
2023-04-15T10:26:30.347Z,20008.96
2023-04-15T10:27:30.509Z,23183.36
2023-04-15T10:28:30.649Z,19210.24
2023-04-15T10:29:30.792Z,16312.319
2023-04-15T10:30:30.956Z,15339.52
2023-04-15T10:31:31.145Z,14295.04
2023-04-15T10:32:31.311Z,16660.48
2023-04-15T10:33:31.424Z,15216.64
2023-04-15T10:34:31.559Z,14817.279
2023-04-15T10:35:31.703Z,15093.76
2023-04-15T10:36:31.855Z,16670.72
2023-04-15T10:37:32.010Z,16056.319
2023-04-15T10:38:32.162Z,13793.279
2023-04-15T10:39:32.319Z,11550.72
2023-04-15T10:40:32.478Z,10977.279
2023-04-15T10:41:32.617Z,10803.2
2023-04-15T10:42:32.722Z,10670.08
2023-04-15T10:43:32.868Z,10629.12
2023-04-15T10:44:33.025Z,11141.12
2023-04-15T10:45:33.122Z,12871.68
2023-04-15T10:46:33.294Z,13516.8
2023-04-15T10:47:33.379Z,13680.64
2023-04-15T10:48:33.537Z,15554.56
2023-04-15T10:49:33.630Z,16025.6
2023-04-15T10:50:33.734Z,14499.84
2023-04-15T10:51:33.870Z,13793.279
2023-04-15T10:52:33.984Z,14325.76
2023-04-15T10:53:34.137Z,15441.92
2023-04-15T10:54:34.282Z,14817.279
2023-04-15T10:55:34.453Z,12134.399
2023-04-15T10:56:34.591Z,11356.16
2023-04-15T10:57:34.695Z,10670.08
2023-04-15T10:58:34.847Z,9681.92
2023-04-15T10:59:34.956Z,9600
2023-04-15T11:00:35.094Z,10567.68
2023-04-15T11:01:35.315Z,11274.24
2023-04-15T11:02:35.589Z,11653.12
2023-04-15T11:03:35.672Z,11253.76
2023-04-15T11:04:35.723Z,10649.6
2023-04-15T11:05:35.846Z,10265.6
2023-04-15T11:06:35.968Z,10055.68
2023-04-15T11:07:36.096Z,10112
2023-04-15T11:08:36.253Z,10577.92
2023-04-15T11:09:36.400Z,11048.96
2023-04-15T11:10:36.563Z,11724.8
2023-04-15T11:11:36.710Z,12328.96
2023-04-15T11:12:36.866Z,12902.399
2023-04-15T11:13:37.015Z,14172.16
2023-04-15T11:14:37.160Z,14643.199
2023-04-15T11:15:37.315Z,14755.84
2023-04-15T11:16:37.478Z,14735.359
2023-04-15T11:17:37.661Z,14827.52
2023-04-15T11:18:37.722Z,14909.439
2023-04-15T11:19:37.873Z,14776.319
2023-04-15T11:20:37.968Z,14223.359
2023-04-15T11:21:38.145Z,13373.439
2023-04-15T11:22:38.232Z,12390.399
2023-04-15T11:23:38.372Z,11540.479
2023-04-15T11:24:38.482Z,11448.319
2023-04-15T11:25:38.625Z,11663.359
2023-04-15T11:26:38.774Z,11796.479
2023-04-15T11:27:38.928Z,11673.6
2023-04-15T11:28:39.291Z,11438.08
2023-04-15T11:29:39.229Z,11264
2023-04-15T11:30:39.385Z,11233.279
2023-04-15T11:31:39.447Z,11264
2023-04-15T11:32:39.619Z,11335.68
2023-04-15T11:33:39.736Z,11458.56
2023-04-15T11:34:39.906Z,11520
2023-04-15T11:35:40.084Z,11581.439
2023-04-15T11:36:40.195Z,11591.68
2023-04-15T11:37:40.351Z,11509.76
2023-04-15T11:38:40.494Z,11223.04
2023-04-15T11:39:40.656Z,10987.52
2023-04-15T11:40:40.830Z,10741.76
2023-04-15T11:41:40.948Z,10557.439
2023-04-15T11:42:49.375Z,10398.72
2023-04-15T11:43:41.256Z,9984
2023-04-15T11:44:41.410Z,9651.2
2023-04-15T11:45:41.587Z,9717.76
2023-04-15T11:46:42.081Z,9999.359
2023-04-15T11:47:41.858Z,10071.04
2023-04-15T11:48:41.962Z,10009.6
2023-04-15T11:49:42.087Z,10040.319
2023-04-15T11:50:42.223Z,10337.279
2023-04-15T11:51:42.379Z,10782.72
2023-04-15T11:52:43.114Z,10915.84
2023-04-15T11:53:42.696Z,10946.56
2023-04-15T11:54:42.838Z,10813.439
2023-04-15T11:55:42.938Z,10680.319
2023-04-15T11:56:43.072Z,10618.88
2023-04-15T11:57:43.219Z,10618.88
2023-04-15T11:58:43.333Z,10419.2
2023-04-15T11:59:45.154Z,10199.04
2023-04-15T12:00:43.636Z,9779.2
2023-04-15T12:01:43.743Z,9267.2
2023-04-15T12:02:43.957Z,8591.359
2023-04-15T12:03:44.249Z,7808
2023-04-15T12:04:44.243Z,6952.96
2023-04-15T12:05:44.338Z,6517.76
2023-04-15T12:06:44.496Z,6430.72
2023-04-15T12:07:44.617Z,6743.04
2023-04-15T12:08:44.748Z,7208.96
2023-04-15T12:09:44.892Z,7787.52
2023-04-15T12:10:45.042Z,8289.28
2023-04-15T12:11:45.209Z,9026.56
2023-04-15T12:12:45.315Z,9553.92
2023-04-15T12:13:45.458Z,9927.68
2023-04-15T12:14:45.594Z,10327.04
2023-04-15T12:15:45.789Z,10711.04
2023-04-15T12:16:48.050Z,11171.84
2023-04-15T12:17:51.223Z,11591.68
2023-04-15T12:18:46.170Z,11601.92
2023-04-15T12:19:46.333Z,11335.68
2023-04-15T12:20:46.461Z,10915.84
2023-04-15T12:21:46.609Z,10618.88
2023-04-15T12:22:46.764Z,10388.479
2023-04-15T12:23:46.914Z,10301.439
2023-04-15T12:24:47.082Z,10414.08
2023-04-15T12:25:47.217Z,10649.6
2023-04-15T12:26:47.323Z,10844.16
2023-04-15T12:27:47.420Z,10905.6
2023-04-15T12:28:47.575Z,10987.52
2023-04-15T12:29:47.689Z,11110.399
2023-04-15T12:30:47.823Z,11141.12